createdAt,value
2018-01-30T00:00:06.618Z,6.53
2018-01-30T00:02:34.728Z,10.50
2018-01-30T00:05:02.846Z,14.60
2018-01-30T00:07:30.944Z,7.80
2018-01-30T00:09:59.065Z,10.33
2018-01-30T00:12:27.171Z,10.63
2018-01-30T00:14:55.270Z,9.53
2018-01-30T00:17:23.359Z,8.93
2018-01-30T00:19:51.450Z,7.93
2018-01-30T00:22:19.569Z,8.70
2018-01-30T00:24:47.659Z,8.17
2018-01-30T00:27:15.762Z,5.63
2018-01-30T00:29:59.021Z,12.63
2018-01-30T00:32:42.691Z,8.50
2018-01-30T00:35:10.849Z,10.77
2018-01-30T00:37:38.958Z,8.97
2018-01-30T00:40:07.068Z,10.63
2018-01-30T00:42:35.166Z,6.67
2018-01-30T00:45:18.851Z,8.37
2018-01-30T00:47:46.961Z,9.17
2018-01-30T00:50:15.055Z,6.97
2018-01-30T00:52:43.166Z,9.33
2018-01-30T00:55:11.263Z,8.93
2018-01-30T00:57:39.359Z,8.90
2018-01-30T01:00:07.462Z,5.40
2018-01-30T01:02:52.620Z,9.27
2018-01-30T01:05:20.736Z,10.13
2018-01-30T01:07:48.841Z,7.13
2018-01-30T01:10:16.957Z,10.37
2018-01-30T01:12:45.067Z,6.83
2018-01-30T01:15:13.170Z,3.00
2018-01-30T01:17:42.211Z,6.47
2018-01-30T01:20:10.320Z,8.13
2018-01-30T01:22:38.420Z,7.53
2018-01-30T01:25:06.563Z,7.87
2018-01-30T01:27:47.780Z,7.80
2018-01-30T01:30:15.882Z,7.70
2018-01-30T01:32:43.981Z,7.47
2018-01-30T01:35:12.084Z,8.43
2018-01-30T01:37:40.196Z,6.20
2018-01-30T01:40:08.304Z,5.07
2018-01-30T01:42:50.885Z,5.40
2018-01-30T01:45:18.974Z,6.67
2018-01-30T01:47:47.100Z,7.83
2018-01-30T01:50:15.196Z,5.73
2018-01-30T01:52:43.283Z,6.77
2018-01-30T01:55:11.396Z,7.83
2018-01-30T01:57:40.421Z,7.30
2018-01-30T02:00:09.538Z,8.67
2018-01-30T02:02:37.633Z,7.13
2018-01-30T02:05:05.776Z,8.43
2018-01-30T02:07:33.843Z,8.37
2018-01-30T02:10:01.963Z,9.97
2018-01-30T02:12:30.047Z,10.67
2018-01-30T02:14:58.134Z,7.17
2018-01-30T02:17:40.424Z,7.23
2018-01-30T02:20:09.571Z,9.47
2018-01-30T02:22:37.672Z,8.33
2018-01-30T02:25:05.762Z,9.33
2018-01-30T02:27:44.618Z,14.33
2018-01-30T02:30:12.729Z,9.37
2018-01-30T02:32:40.843Z,12.33
2018-01-30T02:35:08.944Z,7.83
2018-01-30T02:37:37.031Z,8.80
2018-01-30T02:40:05.150Z,9.40
2018-01-30T02:42:33.264Z,13.07
2018-01-30T02:45:01.390Z,10.20
2018-01-30T02:47:29.489Z,12.43
2018-01-30T02:50:06.608Z,15.33
2018-01-30T02:52:34.719Z,14.37
2018-01-30T02:55:02.826Z,14.73
2018-01-30T02:57:30.918Z,14.27
2018-01-30T02:59:59.022Z,14.23
2018-01-30T03:02:27.132Z,11.67
2018-01-30T03:04:55.230Z,13.80
2018-01-30T03:07:23.334Z,11.37
2018-01-30T03:09:51.426Z,14.63
2018-01-30T03:12:19.557Z,12.10
2018-01-30T03:14:47.680Z,12.03
2018-01-30T03:17:15.784Z,19.70
2018-01-30T03:19:43.891Z,14.20
2018-01-30T03:22:11.996Z,17.47
2018-01-30T03:24:40.098Z,15.27
2018-01-30T03:27:18.696Z,17.63
2018-01-30T03:30:00.698Z,15.83
2018-01-30T03:32:28.800Z,18.50
2018-01-30T03:34:56.920Z,19.33
2018-01-30T03:37:25.010Z,15.03
2018-01-30T03:39:53.128Z,14.77
2018-01-30T03:42:21.245Z,12.63
2018-01-30T03:44:49.326Z,15.60
2018-01-30T03:47:17.438Z,12.80
2018-01-30T03:49:45.549Z,18.53
2018-01-30T03:52:13.657Z,16.23
2018-01-30T03:54:41.759Z,14.50
2018-01-30T03:57:09.869Z,14.20
2018-01-30T03:59:53.446Z,16.50
2018-01-30T04:02:21.567Z,14.07
2018-01-30T04:04:49.670Z,17.60
2018-01-30T04:07:17.770Z,16.93
2018-01-30T04:09:45.884Z,17.63
2018-01-30T04:12:13.991Z,18.37
2018-01-30T04:14:42.096Z,14.33
2018-01-30T04:17:10.202Z,19.10
2018-01-30T04:19:38.316Z,17.30
2018-01-30T04:22:06.422Z,20.80
2018-01-30T04:24:34.514Z,18.70
2018-01-30T04:27:02.642Z,21.00
2018-01-30T04:29:45.242Z,14.77
2018-01-30T04:32:13.368Z,17.77
2018-01-30T04:34:41.476Z,16.53
2018-01-30T04:37:25.505Z,19.03
2018-01-30T04:39:53.612Z,18.00
2018-01-30T04:42:21.720Z,16.73
2018-01-30T04:44:49.832Z,18.27
2018-01-30T04:47:18.858Z,18.90
2018-01-30T04:49:46.991Z,18.97
2018-01-30T04:52:15.078Z,17.23
2018-01-30T04:54:43.200Z,17.67
2018-01-30T04:57:11.316Z,19.93
2018-01-30T04:59:39.409Z,18.57
2018-01-30T05:02:07.518Z,16.90
2018-01-30T05:04:35.614Z,18.33
2018-01-30T05:07:03.758Z,17.90
2018-01-30T05:09:31.861Z,15.87
2018-01-30T05:11:59.980Z,16.97
2018-01-30T05:14:37.924Z,16.97
2018-01-30T05:17:06.033Z,19.53
2018-01-30T05:19:34.291Z,18.93
2018-01-30T05:22:02.412Z,19.80
2018-01-30T05:24:31.521Z,21.70
2018-01-30T05:26:59.635Z,20.63
2018-01-30T05:29:38.293Z,16.70
2018-01-30T05:32:06.404Z,18.83
2018-01-30T05:34:34.519Z,20.33
2018-01-30T05:37:02.626Z,21.20
2018-01-30T05:39:30.736Z,17.57
2018-01-30T05:41:58.841Z,28.80
2018-01-30T05:44:39.675Z,19.47
2018-01-30T05:47:07.774Z,23.30
2018-01-30T05:49:35.882Z,18.57
2018-01-30T05:52:03.998Z,21.40
2018-01-30T05:54:32.094Z,15.90
2018-01-30T05:57:00.213Z,19.47
2018-01-30T05:59:28.329Z,19.17
2018-01-30T06:01:56.442Z,17.37
2018-01-30T06:04:24.570Z,17.00
2018-01-30T06:06:52.676Z,16.97
2018-01-30T06:09:20.904Z,17.83
2018-01-30T06:11:49.016Z,17.70
2018-01-30T06:14:17.126Z,16.87
2018-01-30T06:16:45.234Z,19.03
2018-01-30T06:19:13.345Z,18.97
2018-01-30T06:21:41.446Z,16.33
2018-01-30T06:24:26.627Z,21.57
2018-01-30T06:26:54.726Z,21.30
2018-01-30T06:29:33.984Z,19.27
2018-01-30T06:32:02.100Z,21.63
2018-01-30T06:34:30.198Z,23.40
2018-01-30T06:36:58.692Z,21.13
2018-01-30T06:39:27.744Z,22.63
2018-01-30T06:41:55.855Z,18.83
2018-01-30T06:44:24.905Z,20.07
2018-01-30T06:46:53.091Z,19.97
2018-01-30T06:49:21.138Z,19.10
2018-01-30T06:51:49.260Z,18.60
2018-01-30T06:54:17.371Z,18.13
2018-01-30T06:56:45.507Z,20.30
2018-01-30T06:59:25.527Z,21.80
2018-01-30T07:01:53.625Z,18.80
2018-01-30T07:04:21.755Z,24.23
2018-01-30T07:06:49.874Z,23.70
2018-01-30T07:09:17.979Z,20.53
2018-01-30T07:11:46.122Z,18.20
2018-01-30T07:14:14.226Z,17.43
2018-01-30T07:16:42.327Z,21.37
2018-01-30T07:19:10.454Z,19.07
2018-01-30T07:21:38.602Z,21.13
2018-01-30T07:24:06.712Z,18.13
2018-01-30T07:26:34.831Z,18.33
2018-01-30T07:29:17.369Z,21.83
2018-01-30T07:31:45.501Z,19.97
2018-01-30T07:34:14.598Z,20.23
2018-01-30T07:36:58.604Z,18.33
2018-01-30T07:39:26.736Z,21.87
2018-01-30T07:41:54.840Z,19.40
2018-01-30T07:44:22.981Z,16.50
2018-01-30T07:46:51.075Z,20.83
2018-01-30T07:49:19.222Z,18.77
2018-01-30T07:51:47.343Z,21.50
2018-01-30T07:54:15.464Z,20.13
2018-01-30T07:56:43.559Z,20.43
2018-01-30T07:59:11.682Z,18.47
2018-01-30T08:01:39.804Z,18.00
2018-01-30T08:04:07.899Z,19.17
2018-01-30T08:06:36.047Z,18.50
2018-01-30T08:09:04.174Z,19.73
2018-01-30T08:11:32.428Z,22.27
2018-01-30T08:14:12.094Z,18.77
2018-01-30T08:16:40.219Z,24.13
2018-01-30T08:19:08.322Z,24.97
2018-01-30T08:21:36.426Z,23.70
2018-01-30T08:24:04.553Z,18.60
2018-01-30T08:26:32.676Z,25.87
2018-01-30T08:29:12.786Z,24.73
2018-01-30T08:31:40.900Z,23.93
2018-01-30T08:34:09.012Z,25.03
2018-01-30T08:36:37.120Z,23.60
2018-01-30T08:39:05.245Z,24.00
2018-01-30T08:41:33.352Z,28.83
2018-01-30T08:44:01.461Z,34.00
2018-01-30T08:46:29.570Z,33.53
2018-01-30T08:48:57.678Z,26.00
2018-01-30T08:51:35.862Z,32.10
2018-01-30T08:54:04.917Z,26.87
2018-01-30T08:56:33.050Z,32.33
2018-01-30T08:59:01.152Z,33.50
2018-01-30T09:01:43.114Z,32.23
2018-01-30T09:04:25.977Z,38.73
2018-01-30T09:07:08.078Z,43.57
2018-01-30T09:09:51.392Z,41.13
2018-01-30T09:12:19.521Z,42.27
2018-01-30T09:14:58.769Z,50.83
2018-01-30T09:17:41.132Z,49.77
2018-01-30T09:20:09.251Z,49.67
2018-01-30T09:22:49.400Z,46.40
2018-01-30T09:25:17.516Z,52.00
2018-01-30T09:27:56.661Z,48.67
2018-01-30T09:30:24.776Z,52.93
2018-01-30T09:33:13.247Z,54.90
2018-01-30T09:35:56.537Z,49.73
2018-01-30T09:38:24.637Z,49.90
2018-01-30T09:40:52.734Z,55.23
2018-01-30T09:43:20.877Z,51.50
2018-01-30T09:45:48.996Z,50.30
2018-01-30T09:48:17.116Z,52.90
2018-01-30T09:50:45.240Z,51.13
2018-01-30T09:53:13.350Z,52.73
2018-01-30T09:55:41.466Z,48.03
2018-01-30T09:58:09.579Z,52.13
2018-01-30T10:00:37.707Z,51.70
2018-01-30T10:03:16.555Z,52.17
2018-01-30T10:05:44.690Z,49.30
2018-01-30T10:08:12.802Z,47.23
2018-01-30T10:10:40.916Z,51.17
2018-01-30T10:13:09.034Z,46.83
2018-01-30T10:15:37.126Z,53.07
2018-01-30T10:18:05.274Z,46.37
2018-01-30T10:20:33.378Z,50.50
2018-01-30T10:23:01.496Z,51.70
2018-01-30T10:25:29.598Z,50.17
2018-01-30T10:28:11.654Z,58.73
2018-01-30T10:30:39.765Z,51.53
2018-01-30T10:33:07.873Z,59.07
2018-01-30T10:35:52.484Z,53.67
2018-01-30T10:38:20.603Z,54.27
2018-01-30T10:40:48.722Z,53.17
2018-01-30T10:43:16.828Z,55.77
2018-01-30T10:45:44.926Z,61.97
2018-01-30T10:48:13.063Z,58.47
2018-01-30T10:50:41.204Z,69.77
2018-01-30T10:53:09.317Z,52.33
2018-01-30T10:55:37.427Z,66.47
2018-01-30T10:58:05.523Z,77.40
2018-01-30T11:00:33.660Z,82.83
2018-01-30T11:03:01.757Z,67.20
2018-01-30T11:05:29.874Z,64.10
2018-01-30T11:07:57.993Z,68.20
2018-01-30T11:10:41.520Z,60.77
2018-01-30T11:13:09.614Z,59.10
2018-01-30T11:15:37.816Z,63.43
2018-01-30T11:18:05.923Z,58.10
2018-01-30T11:20:34.034Z,64.73
2018-01-30T11:23:02.161Z,56.93
2018-01-30T11:25:30.268Z,52.90
2018-01-30T11:28:14.884Z,56.73
2018-01-30T11:30:42.992Z,59.37
2018-01-30T11:33:12.034Z,48.90
2018-01-30T11:35:40.154Z,59.53
2018-01-30T11:38:08.282Z,57.73
2018-01-30T11:40:36.385Z,55.90
2018-01-30T11:43:16.263Z,64.83
2018-01-30T11:45:44.364Z,55.20
2018-01-30T11:48:12.472Z,51.43
2018-01-30T11:50:40.592Z,46.57
2018-01-30T11:53:08.700Z,53.93
2018-01-30T11:55:36.835Z,50.30
2018-01-30T11:58:04.932Z,52.50
2018-01-30T12:00:33.034Z,54.67
2018-01-30T12:03:01.152Z,57.03
2018-01-30T12:05:29.288Z,52.43
2018-01-30T12:07:57.411Z,53.27
2018-01-30T12:10:25.542Z,59.37
2018-01-30T12:13:07.607Z,59.70
2018-01-30T12:15:35.718Z,53.73
2018-01-30T12:18:03.836Z,49.87
2018-01-30T12:20:31.965Z,43.77
2018-01-30T12:23:00.090Z,51.53
2018-01-30T12:25:28.195Z,43.73
2018-01-30T12:28:08.611Z,49.83
2018-01-30T12:30:36.859Z,38.30
2018-01-30T12:33:05.052Z,46.10
2018-01-30T12:35:33.361Z,42.90
2018-01-30T12:38:01.614Z,43.53
2018-01-30T12:40:29.724Z,44.63
2018-01-30T12:42:57.830Z,39.63
2018-01-30T12:45:42.504Z,40.17
2018-01-30T12:48:10.602Z,39.57
2018-01-30T12:50:38.739Z,36.23
2018-01-30T12:53:06.872Z,36.00
2018-01-30T12:55:35.004Z,38.30
2018-01-30T12:58:03.124Z,42.83
2018-01-30T13:00:31.222Z,46.33
2018-01-30T13:02:59.423Z,43.87
2018-01-30T13:05:40.035Z,34.50
2018-01-30T13:08:08.185Z,38.63
2018-01-30T13:10:36.282Z,32.70
2018-01-30T13:13:04.405Z,44.27
2018-01-30T13:15:32.538Z,33.83
2018-01-30T13:18:06.165Z,36.73
2018-01-30T13:20:34.272Z,39.57
2018-01-30T13:23:02.401Z,41.90
2018-01-30T13:25:31.435Z,41.00
2018-01-30T13:28:11.373Z,37.23
2018-01-30T13:30:39.488Z,35.83
2018-01-30T13:33:07.615Z,35.33
2018-01-30T13:35:35.725Z,33.50
2018-01-30T13:38:03.856Z,33.40
2018-01-30T13:40:31.966Z,31.10
2018-01-30T13:43:00.090Z,30.43
2018-01-30T13:45:28.236Z,29.90
2018-01-30T13:47:56.338Z,26.60
2018-01-30T13:50:24.500Z,27.37
2018-01-30T13:52:52.627Z,23.57
2018-01-30T13:55:20.752Z,25.47
2018-01-30T13:58:03.639Z,29.00
2018-01-30T14:00:31.734Z,25.07
2018-01-30T14:03:00.796Z,30.07
2018-01-30T14:05:28.929Z,31.87
2018-01-30T14:07:57.047Z,30.07
2018-01-30T14:10:25.161Z,28.30
2018-01-30T14:12:53.290Z,26.93
2018-01-30T14:15:21.406Z,25.83
2018-01-30T14:17:49.572Z,27.03
2018-01-30T14:20:17.689Z,23.23
2018-01-30T14:22:45.802Z,22.67
2018-01-30T14:25:13.922Z,23.17
2018-01-30T14:27:54.985Z,22.20
2018-01-30T14:30:23.095Z,20.63
2018-01-30T14:32:51.216Z,24.33
2018-01-30T14:35:36.500Z,22.90
2018-01-30T14:38:04.654Z,22.10
2018-01-30T14:40:32.888Z,25.77
2018-01-30T14:43:00.998Z,26.00
2018-01-30T14:45:30.077Z,24.43
2018-01-30T14:47:58.189Z,24.13
2018-01-30T14:50:29.773Z,19.67
2018-01-30T14:52:57.910Z,18.30
2018-01-30T14:55:26.040Z,20.97
2018-01-30T14:57:54.153Z,23.30
2018-01-30T15:00:22.279Z,22.07
2018-01-30T15:02:50.403Z,18.50
2018-01-30T15:05:18.517Z,20.53
2018-01-30T15:08:00.875Z,17.77
2018-01-30T15:10:28.993Z,26.17
2018-01-30T15:12:57.103Z,17.70
2018-01-30T15:15:25.210Z,25.90
2018-01-30T15:17:53.338Z,19.97
2018-01-30T15:20:21.452Z,21.03
2018-01-30T15:22:49.591Z,26.47
2018-01-30T15:25:17.760Z,22.07
2018-01-30T15:27:58.604Z,19.33
2018-01-30T15:30:26.715Z,22.03
2018-01-30T15:32:54.826Z,20.40
2018-01-30T15:35:22.933Z,19.40
2018-01-30T15:37:51.064Z,25.00
2018-01-30T15:40:35.413Z,29.93
2018-01-30T15:43:03.526Z,20.70
2018-01-30T15:45:41.863Z,21.97
2018-01-30T15:48:09.954Z,21.30
2018-01-30T15:50:38.054Z,22.30
2018-01-30T15:53:06.186Z,24.57
2018-01-30T15:55:34.295Z,22.10
2018-01-30T15:58:18.459Z,26.77
2018-01-30T16:00:46.582Z,20.03
2018-01-30T16:03:14.688Z,25.03
2018-01-30T16:05:42.802Z,24.83
2018-01-30T16:08:10.906Z,22.80
2018-01-30T16:10:39.029Z,21.80
2018-01-30T16:13:19.696Z,26.17
2018-01-30T16:15:47.814Z,21.20
2018-01-30T16:18:17.834Z,26.50
2018-01-30T16:20:45.945Z,27.30
2018-01-30T16:23:14.099Z,24.50
2018-01-30T16:25:42.202Z,25.53
2018-01-30T16:28:20.887Z,28.93
2018-01-30T16:30:49.007Z,21.60
2018-01-30T16:33:17.110Z,24.37
2018-01-30T16:35:46.171Z,20.67
2018-01-30T16:38:14.281Z,22.90
2018-01-30T16:40:43.343Z,23.77
2018-01-30T16:43:11.443Z,25.03
2018-01-30T16:45:39.568Z,24.13
2018-01-30T16:48:18.690Z,22.50
2018-01-30T16:50:46.810Z,19.57
2018-01-30T16:53:14.928Z,23.83
2018-01-30T16:55:43.075Z,27.33
2018-01-30T16:58:12.138Z,27.20
2018-01-30T17:00:40.225Z,21.53
2018-01-30T17:03:08.342Z,19.40
2018-01-30T17:05:36.449Z,18.43
2018-01-30T17:08:26.125Z,27.17
2018-01-30T17:10:54.236Z,25.00
2018-01-30T17:13:23.320Z,21.63
2018-01-30T17:15:51.428Z,24.80
2018-01-30T17:18:19.547Z,20.03
2018-01-30T17:20:47.662Z,23.20
2018-01-30T17:23:15.801Z,25.60
2018-01-30T17:25:43.902Z,27.27
2018-01-30T17:28:24.342Z,23.73
2018-01-30T17:30:52.443Z,24.40
2018-01-30T17:33:20.538Z,27.60
2018-01-30T17:35:48.672Z,18.83
2018-01-30T17:38:16.792Z,19.47
2018-01-30T17:40:44.894Z,22.30
2018-01-30T17:46:09.829Z,17.37
2018-01-30T17:48:58.789Z,21.93
2018-01-30T17:51:37.312Z,23.17
2018-01-30T17:54:05.432Z,24.40
2018-01-30T17:56:33.549Z,23.37
2018-01-30T17:59:01.663Z,23.90
2018-01-30T18:01:29.767Z,27.07
2018-01-30T18:03:57.889Z,25.77
2018-01-30T18:06:26.013Z,22.90
2018-01-30T18:08:54.110Z,23.27
2018-01-30T18:11:22.222Z,21.93
2018-01-30T18:16:53.592Z,23.40
2018-01-30T18:22:31.432Z,26.13
2018-01-30T18:25:15.062Z,25.73
2018-01-30T18:27:43.189Z,26.80
2018-01-30T18:30:23.200Z,30.90
2018-01-30T18:33:09.496Z,29.63
2018-01-30T18:35:50.382Z,23.07
2018-01-30T18:41:19.488Z,29.50
2018-01-30T18:44:01.556Z,24.53
2018-01-30T18:46:44.098Z,26.77
2018-01-30T18:49:12.228Z,26.77
2018-01-30T18:51:41.260Z,25.90
2018-01-30T18:54:09.359Z,28.30
2018-01-30T18:56:37.471Z,24.20
2018-01-30T18:59:21.586Z,24.20
2018-01-30T19:01:49.731Z,26.60
2018-01-30T19:04:17.836Z,25.60
2018-01-30T19:06:45.950Z,25.97
2018-01-30T19:09:14.080Z,25.53
2018-01-30T19:11:42.174Z,29.47
2018-01-30T19:14:10.302Z,23.27
2018-01-30T19:16:38.403Z,29.50
2018-01-30T19:19:07.465Z,24.50
2018-01-30T19:21:35.584Z,26.43
2018-01-30T19:24:03.682Z,23.60
2018-01-30T19:26:31.810Z,32.13
2018-01-30T19:29:13.348Z,29.17
2018-01-30T19:31:41.532Z,26.60
2018-01-30T19:34:20.920Z,25.13
2018-01-30T19:36:49.996Z,24.47
2018-01-30T19:39:18.154Z,25.83
2018-01-30T19:41:46.274Z,24.03
2018-01-30T19:44:14.404Z,29.50
2018-01-30T19:46:42.494Z,26.53
2018-01-30T19:49:10.606Z,22.83
2018-01-30T19:51:54.880Z,31.00
2018-01-30T19:54:39.410Z,27.07
2018-01-30T19:57:22.762Z,25.50
2018-01-30T19:59:50.894Z,24.73
2018-01-30T20:02:30.049Z,29.10
2018-01-30T20:04:58.166Z,23.17
2018-01-30T20:07:27.255Z,28.37
2018-01-30T20:10:11.169Z,26.80
2018-01-30T20:12:39.274Z,24.50
2018-01-30T20:15:07.388Z,24.90
2018-01-30T20:17:37.304Z,23.03
2018-01-30T20:20:05.432Z,24.90
2018-01-30T20:22:33.557Z,25.20
2018-01-30T20:25:01.677Z,27.03
2018-01-30T20:27:46.893Z,22.03
2018-01-30T20:30:24.094Z,22.83
2018-01-30T20:33:05.805Z,26.83
2018-01-30T20:38:41.485Z,26.60
2018-01-30T20:41:24.810Z,27.43
2018-01-30T20:44:08.205Z,26.10
2018-01-30T20:46:36.485Z,24.13
2018-01-30T20:49:14.756Z,24.50
2018-01-30T20:51:56.384Z,23.90
2018-01-30T20:54:24.561Z,25.27
2018-01-30T20:57:03.283Z,28.83
2018-01-30T20:59:31.437Z,24.90
2018-01-30T21:02:09.694Z,25.23
2018-01-30T21:04:51.993Z,26.07
2018-01-30T21:07:34.462Z,24.80
2018-01-30T21:10:17.441Z,35.07
2018-01-30T21:13:00.292Z,30.07
2018-01-30T21:15:42.473Z,26.17
2018-01-30T21:18:25.594Z,23.17
2018-01-30T21:21:07.943Z,25.80
2018-01-30T21:23:36.041Z,20.37
2018-01-30T21:26:15.198Z,20.80
2018-01-30T21:28:57.664Z,21.87
2018-01-30T21:31:41.370Z,20.03
2018-01-30T21:34:09.467Z,22.13
2018-01-30T21:36:49.315Z,20.90
2018-01-30T21:39:17.422Z,23.50
2018-01-30T21:42:04.117Z,20.40
2018-01-30T21:44:32.228Z,24.57
2018-01-30T21:47:11.376Z,21.83
2018-01-30T21:49:53.060Z,20.73
2018-01-30T21:52:35.566Z,17.83
2018-01-30T21:55:18.695Z,18.77
2018-01-30T21:57:46.806Z,17.27
2018-01-30T22:00:25.637Z,17.50
2018-01-30T22:02:53.756Z,19.30
2018-01-30T22:05:32.205Z,20.60
2018-01-30T22:08:14.679Z,19.03
2018-01-30T22:10:57.327Z,17.53
2018-01-30T22:13:40.133Z,18.17
2018-01-30T22:16:08.290Z,17.17
2018-01-30T22:18:47.154Z,16.87
2018-01-30T22:21:15.312Z,14.83
2018-01-30T22:23:44.380Z,13.80
2018-01-30T22:26:26.061Z,16.87
2018-01-30T22:29:08.408Z,14.80
2018-01-30T22:31:45.175Z,13.27
2018-01-30T22:34:13.261Z,15.17
2018-01-30T22:36:51.975Z,17.07
2018-01-30T22:39:34.218Z,12.97
2018-01-30T22:42:16.379Z,20.23
2018-01-30T22:44:58.807Z,13.80
